createdAt,value
2023-04-05T00:00:57.248Z,7.28
2023-04-05T00:03:25.632Z,8.60
2023-04-05T00:05:54.774Z,10.70
2023-04-05T00:08:26.685Z,8.30
2023-04-05T00:10:55.946Z,11.23
2023-04-05T00:13:24.056Z,7.53
2023-04-05T00:15:51.791Z,11.07
2023-04-05T00:18:25.519Z,9.25
2023-04-05T00:20:54.283Z,10.73
2023-04-05T00:23:22.966Z,8.43
2023-04-05T00:25:50.723Z,12.18
2023-04-05T00:28:20.116Z,9.73
2023-04-05T00:30:47.907Z,10.43
2023-04-05T00:33:15.664Z,10.77
2023-04-05T00:35:43.498Z,9.48
2023-04-05T00:38:11.221Z,10.02
2023-04-05T00:40:39.159Z,9.85
2023-04-05T00:43:07.365Z,11.30
2023-04-05T00:45:36.801Z,12.10
2023-04-05T00:48:05.705Z,11.38
2023-04-05T00:50:34.381Z,10.25
2023-04-05T00:53:02.205Z,11.63
2023-04-05T00:55:30.196Z,9.52
2023-04-05T00:57:57.950Z,11.50
2023-04-05T01:00:26.109Z,10.15
2023-04-05T01:03:01.956Z,12.50
2023-04-05T01:05:38.048Z,10.73
2023-04-05T01:08:16.213Z,10.38
2023-04-05T01:10:49.043Z,12.27
2023-04-05T01:13:17.514Z,10.48
2023-04-05T01:15:45.301Z,11.32
2023-04-05T01:18:15.125Z,10.82
2023-04-05T01:20:53.716Z,12.35
2023-04-05T01:23:37.832Z,10.82
2023-04-05T01:26:32.422Z,11.07
2023-04-05T01:29:42.941Z,10.57
2023-04-05T01:32:23.162Z,11.13
2023-04-05T01:34:56.515Z,12.15
2023-04-05T01:37:28.531Z,10.85
2023-04-05T01:39:57.023Z,15.85
2023-04-05T01:42:26.265Z,10.88
2023-04-05T01:44:54.703Z,11.75
2023-04-05T01:47:23.934Z,10.93
2023-04-05T01:49:51.679Z,12.43
2023-04-05T01:52:19.437Z,13.07
2023-04-05T01:54:47.138Z,15.18
2023-04-05T01:57:14.947Z,12.77
2023-04-05T01:59:42.735Z,10.40
2023-04-05T02:02:10.497Z,15.18
2023-04-05T02:04:39.849Z,11.52
2023-04-05T02:07:07.578Z,10.50
2023-04-05T02:09:35.468Z,9.32
2023-04-05T02:12:03.198Z,10.75
2023-04-05T02:14:31.226Z,10.35
2023-04-05T02:16:58.943Z,22.98
2023-04-05T02:19:26.786Z,16.52
2023-04-05T02:21:55.927Z,16.85
2023-04-05T02:24:23.817Z,15.68
2023-04-05T02:26:51.660Z,13.65
2023-04-05T02:29:19.481Z,14.88
2023-04-05T02:31:47.867Z,13.20
2023-04-05T02:34:16.105Z,14.50
2023-04-05T02:36:44.145Z,12.20
2023-04-05T02:39:14.389Z,15.05
2023-04-05T02:41:42.507Z,16.17
2023-04-05T02:44:10.330Z,13.75
2023-04-05T02:46:38.337Z,14.02
2023-04-05T02:49:06.936Z,20.75
2023-04-05T02:51:35.001Z,17.85
2023-04-05T02:54:03.719Z,16.02
2023-04-05T02:56:32.799Z,14.10
2023-04-05T02:59:00.650Z,13.25
2023-04-05T03:01:28.449Z,15.48
2023-04-05T03:03:56.300Z,13.38
2023-04-05T03:06:24.097Z,17.35
2023-04-05T03:08:52.381Z,14.90
2023-04-05T03:11:20.889Z,12.80
2023-04-05T03:13:49.991Z,14.00
2023-04-05T03:16:20.077Z,15.35
2023-04-05T03:18:48.002Z,14.77
2023-04-05T03:21:18.117Z,16.73
2023-04-05T03:23:46.838Z,15.02
2023-04-05T03:26:15.223Z,15.82
2023-04-05T03:28:45.254Z,12.82
2023-04-05T03:31:15.042Z,13.70
2023-04-05T03:33:42.880Z,11.10
2023-04-05T03:36:12.864Z,12.50
2023-04-05T03:38:42.549Z,12.40
2023-04-05T03:41:10.498Z,14.98
2023-04-05T03:43:38.373Z,12.25
2023-04-05T03:46:06.501Z,11.70
2023-04-05T03:48:35.729Z,15.63
2023-04-05T03:51:03.576Z,11.88
2023-04-05T03:53:31.306Z,14.13
2023-04-05T03:55:59.184Z,16.00
2023-04-05T03:58:27.080Z,12.18
2023-04-05T04:00:56.170Z,13.65
2023-04-05T04:03:26.042Z,13.82
2023-04-05T04:05:55.639Z,14.75
2023-04-05T04:08:23.508Z,11.88
2023-04-05T04:10:51.343Z,14.93
2023-04-05T04:13:19.572Z,13.05
2023-04-05T04:15:47.845Z,13.55
2023-04-05T04:18:15.644Z,15.00
2023-04-05T04:20:43.650Z,14.20
2023-04-05T04:23:14.523Z,14.50
2023-04-05T04:25:46.142Z,14.32
2023-04-05T04:28:17.871Z,9.02
2023-04-05T04:30:46.731Z,13.30
2023-04-05T04:33:14.725Z,13.40
2023-04-05T04:35:42.808Z,12.27
2023-04-05T04:38:20.505Z,10.40
2023-04-05T04:40:50.786Z,14.15
2023-04-05T04:43:19.046Z,14.60
2023-04-05T04:45:49.361Z,11.05
2023-04-05T04:48:18.529Z,15.48
2023-04-05T04:50:46.633Z,13.77
2023-04-05T04:53:17.473Z,16.58
2023-04-05T04:55:45.566Z,16.65
2023-04-05T04:58:14.216Z,17.27
2023-04-05T05:00:44.628Z,14.52
2023-04-05T05:03:13.460Z,16.75
2023-04-05T05:05:44.604Z,18.00
2023-04-05T05:08:12.933Z,20.65
2023-04-05T05:10:42.405Z,17.27
2023-04-05T05:13:11.492Z,20.63
2023-04-05T05:15:40.951Z,18.45
2023-04-05T05:18:08.979Z,15.60
2023-04-05T05:20:37.501Z,14.25
2023-04-05T05:23:06.321Z,15.30
2023-04-05T05:25:34.004Z,16.45
2023-04-05T05:28:03.136Z,14.55
2023-04-05T05:30:31.110Z,14.48
2023-04-05T05:32:58.814Z,19.23
2023-04-05T05:35:27.815Z,14.20
2023-04-05T05:37:55.593Z,17.15
2023-04-05T05:40:23.338Z,17.58
2023-04-05T05:42:51.530Z,16.58
2023-04-05T05:45:20.757Z,19.17
2023-04-05T05:47:48.523Z,16.98
2023-04-05T05:50:17.169Z,16.23
2023-04-05T05:52:44.944Z,16.65
2023-04-05T05:55:12.590Z,20.70
2023-04-05T05:57:40.419Z,19.08
2023-04-05T06:00:10.722Z,15.82
2023-04-05T06:02:40.606Z,18.85
2023-04-05T06:05:09.055Z,19.33
2023-04-05T06:07:38.387Z,16.17
2023-04-05T06:10:06.691Z,19.25
2023-04-05T06:12:34.826Z,15.63
2023-04-05T06:15:03.103Z,15.48
2023-04-05T06:17:30.884Z,13.43
2023-04-05T06:20:00.143Z,14.02
2023-04-05T06:22:28.783Z,18.00
2023-04-05T06:24:56.673Z,11.52
2023-04-05T06:27:24.490Z,15.55
2023-04-05T06:29:52.637Z,16.45
2023-04-05T06:32:20.738Z,13.73
2023-04-05T06:34:49.065Z,15.45
2023-04-05T06:37:18.636Z,15.10
2023-04-05T06:39:46.411Z,14.90
2023-04-05T06:42:14.197Z,22.10
2023-04-05T06:44:41.910Z,14.43
2023-04-05T06:47:10.022Z,12.88
2023-04-05T06:49:37.962Z,16.10
2023-04-05T06:52:06.795Z,17.98
2023-04-05T06:54:38.436Z,19.23
2023-04-05T06:57:06.317Z,17.47
2023-04-05T06:59:34.228Z,18.77
2023-04-05T07:02:02.144Z,16.65
2023-04-05T07:04:33.353Z,19.52
2023-04-05T07:07:03.150Z,16.65
2023-04-05T07:09:32.684Z,22.33
2023-04-05T07:12:05.777Z,17.15
2023-04-05T07:14:34.443Z,21.10
2023-04-05T07:17:02.124Z,18.52
2023-04-05T07:19:29.990Z,15.13
2023-04-05T07:21:58.322Z,15.63
2023-04-05T07:24:26.110Z,19.02
2023-04-05T07:26:54.012Z,15.48
2023-04-05T07:29:23.111Z,15.38
2023-04-05T07:31:51.483Z,18.35
2023-04-05T07:34:19.207Z,13.80
2023-04-05T07:36:47.386Z,15.98
2023-04-05T07:39:15.884Z,15.20
2023-04-05T07:41:43.787Z,12.00
2023-04-05T07:44:11.752Z,11.63
2023-04-05T07:46:46.885Z,11.32
2023-04-05T07:49:16.249Z,12.75
2023-04-05T07:51:44.081Z,10.95
2023-04-05T07:54:11.827Z,12.40
2023-04-05T07:56:39.703Z,11.40
2023-04-05T07:59:07.889Z,10.68
2023-04-05T08:01:35.661Z,9.60
2023-04-05T08:04:04.827Z,9.65
2023-04-05T08:06:32.597Z,12.35
2023-04-05T08:09:00.495Z,11.70
2023-04-05T08:11:28.192Z,13.90
2023-04-05T08:13:55.957Z,12.80
2023-04-05T08:16:23.831Z,12.20
2023-04-05T08:18:51.890Z,13.10
2023-04-05T08:21:21.293Z,11.52
2023-04-05T08:23:49.992Z,11.07
2023-04-05T08:26:18.304Z,9.70
2023-04-05T08:28:46.193Z,8.98
2023-04-05T08:31:14.105Z,10.88
2023-04-05T08:33:41.857Z,10.75
2023-04-05T08:36:11.657Z,8.90
2023-04-05T08:38:40.751Z,10.63
2023-04-05T08:41:14.187Z,10.25
2023-04-05T08:43:48.721Z,12.25
2023-04-05T08:46:18.839Z,10.25
2023-04-05T08:48:46.580Z,11.73
2023-04-05T08:51:14.354Z,10.73
2023-04-05T08:53:43.764Z,13.23
2023-04-05T08:56:16.406Z,10.20
2023-04-05T08:58:49.553Z,9.77
2023-04-05T09:01:18.150Z,12.75
2023-04-05T09:03:48.227Z,11.77
2023-04-05T09:06:16.884Z,9.13
2023-04-05T09:08:46.743Z,11.82
2023-04-05T09:11:15.678Z,8.13
2023-04-05T09:13:43.389Z,9.15
2023-04-05T09:16:11.209Z,10.07
2023-04-05T09:18:38.991Z,9.77
2023-04-05T09:21:07.179Z,9.98
2023-04-05T09:23:35.746Z,8.48
2023-04-05T09:26:19.285Z,11.13
2023-04-05T09:28:47.154Z,6.53
2023-04-05T09:31:33.394Z,8.10
2023-04-05T09:34:03.242Z,7.32
2023-04-05T09:36:32.909Z,9.02
2023-04-05T09:39:08.271Z,8.07
2023-04-05T09:41:39.320Z,7.82
2023-04-05T09:44:07.205Z,8.90
2023-04-05T09:46:38.030Z,10.40
2023-04-05T09:49:09.492Z,7.97
2023-04-05T09:51:38.647Z,8.73
2023-04-05T09:54:08.705Z,7.72
2023-04-05T09:56:39.039Z,9.13
2023-04-05T09:59:10.780Z,7.82
2023-04-05T10:01:41.186Z,7.93
2023-04-05T10:04:09.961Z,9.93
2023-04-05T10:06:39.135Z,9.05
2023-04-05T10:09:08.076Z,9.30
2023-04-05T10:11:38.631Z,9.68
2023-04-05T10:14:08.388Z,7.85
2023-04-05T10:16:44.412Z,7.43
2023-04-05T10:19:21.431Z,6.75
2023-04-05T10:21:50.515Z,8.77
2023-04-05T10:24:32.954Z,7.93
2023-04-05T10:27:07.381Z,6.72
2023-04-05T10:29:43.446Z,6.78
2023-04-05T10:32:16.945Z,8.32
2023-04-05T10:34:52.267Z,8.27
2023-04-05T10:37:31.530Z,9.85
2023-04-05T10:40:04.213Z,8.85
2023-04-05T10:42:41.762Z,7.40
2023-04-05T10:45:15.245Z,6.72
2023-04-05T10:47:48.214Z,7.68
2023-04-05T10:50:21.338Z,7.57
2023-04-05T10:52:50.376Z,7.38
2023-04-05T10:55:18.745Z,7.40
2023-04-05T10:57:49.747Z,8.23
2023-04-05T11:00:19.625Z,7.90
2023-04-05T11:02:49.743Z,8.65
2023-04-05T11:05:31.971Z,8.77
2023-04-05T11:08:04.716Z,10.45
2023-04-05T11:10:35.242Z,7.18
2023-04-05T11:13:12.285Z,7.05
2023-04-05T11:15:40.322Z,6.57
2023-04-05T11:18:11.449Z,7.22
2023-04-05T11:20:47.671Z,8.10
2023-04-05T11:23:17.382Z,6.88
2023-04-05T11:25:51.778Z,9.63
2023-04-05T11:28:32.220Z,7.70
2023-04-05T11:31:14.041Z,7.97
2023-04-05T11:34:00.852Z,6.93
2023-04-05T11:36:39.184Z,7.18
2023-04-05T11:39:29.533Z,7.03
2023-04-05T11:42:05.099Z,7.55
2023-04-05T11:44:44.165Z,9.07
2023-04-05T11:47:13.090Z,7.88
2023-04-05T11:49:42.589Z,8.43
2023-04-05T11:52:15.946Z,7.18
2023-04-05T11:54:47.599Z,15.13
2023-04-05T11:57:20.170Z,8.57
2023-04-05T12:02:24.060Z,6.35
2023-04-05T12:04:56.559Z,6.22
2023-04-05T12:07:27.987Z,7.50
2023-04-05T12:10:18.784Z,7.63
2023-04-05T12:12:48.854Z,8.27
2023-04-05T12:15:19.023Z,7.57
2023-04-05T12:17:49.784Z,9.55
2023-04-05T12:20:21.092Z,8.98
2023-04-05T12:22:51.284Z,7.38
2023-04-05T12:25:20.570Z,7.10
2023-04-05T12:27:48.752Z,8.27
2023-04-05T12:30:19.878Z,9.27
2023-04-05T12:32:49.286Z,9.20
2023-04-05T12:35:18.213Z,7.00
2023-04-05T12:37:46.942Z,7.88
2023-04-05T12:40:15.055Z,9.30
2023-04-05T12:42:43.083Z,7.63
2023-04-05T12:45:14.855Z,6.68
2023-04-05T12:47:51.833Z,8.23
2023-04-05T12:50:26.186Z,8.85
2023-04-05T12:52:55.580Z,8.35
2023-04-05T12:55:23.896Z,7.03
2023-04-05T12:57:53.630Z,8.20
2023-04-05T13:00:24.842Z,8.18
2023-04-05T13:02:55.532Z,7.20
2023-04-05T13:05:24.745Z,7.68
2023-04-05T13:07:52.802Z,6.70
2023-04-05T13:10:20.910Z,7.22
2023-04-05T13:12:49.090Z,6.85
2023-04-05T13:15:18.128Z,6.97
2023-04-05T13:17:50.000Z,7.57
2023-04-05T13:20:20.359Z,8.95
2023-04-05T13:22:48.579Z,6.40
2023-04-05T13:25:16.703Z,6.85
2023-04-05T13:27:44.849Z,7.03
2023-04-05T13:30:13.323Z,7.03
2023-04-05T13:32:41.468Z,7.25
2023-04-05T13:35:09.988Z,7.40
2023-04-05T13:37:42.443Z,8.25
2023-04-05T13:40:11.188Z,8.52
2023-04-05T13:42:39.096Z,10.05
2023-04-05T13:45:28.506Z,7.00
2023-04-05T13:47:57.171Z,7.85
2023-04-05T13:50:25.163Z,9.55
2023-04-05T13:52:54.456Z,7.32
2023-04-05T13:55:22.276Z,7.32
2023-04-05T13:57:50.286Z,6.70
2023-04-05T14:00:18.751Z,9.73
2023-04-05T14:02:46.778Z,8.27
2023-04-05T14:05:15.588Z,9.02
2023-04-05T14:07:43.421Z,7.38
2023-04-05T14:10:12.798Z,6.65
2023-04-05T14:12:40.669Z,9.68
2023-04-05T14:15:09.343Z,6.97
2023-04-05T14:17:37.270Z,6.78
2023-04-05T14:20:06.570Z,7.70
2023-04-05T14:22:34.469Z,8.80
2023-04-05T14:25:04.725Z,7.55
2023-04-05T14:27:35.915Z,8.48
2023-04-05T14:30:03.877Z,7.20
2023-04-05T14:32:33.815Z,9.00
2023-04-05T14:35:01.887Z,7.80
2023-04-05T14:37:29.779Z,7.60
2023-04-05T14:39:57.705Z,6.88
2023-04-05T14:42:37.209Z,7.85
2023-04-05T14:45:07.699Z,9.38
2023-04-05T14:47:35.824Z,7.72
2023-04-05T14:50:03.902Z,10.00
2023-04-05T14:52:31.996Z,7.55
2023-04-05T14:54:59.954Z,8.18
2023-04-05T14:57:28.113Z,9.70
2023-04-05T14:59:56.113Z,7.65
2023-04-05T15:02:26.476Z,7.45
2023-04-05T15:04:54.288Z,7.82
2023-04-05T15:07:22.170Z,9.93
2023-04-05T15:09:50.045Z,8.90
2023-04-05T15:12:17.998Z,7.65
2023-04-05T15:14:46.019Z,10.90
2023-04-05T15:17:14.038Z,7.78
2023-04-05T15:19:43.471Z,7.95
2023-04-05T15:22:11.437Z,8.10
2023-04-05T15:24:41.659Z,7.45
2023-04-05T15:27:09.941Z,7.03
2023-04-05T15:29:37.970Z,7.32
2023-04-05T15:32:05.943Z,7.53
2023-04-05T15:34:33.817Z,11.25
2023-04-05T15:37:03.003Z,8.45
2023-04-05T15:39:30.892Z,7.63
2023-04-05T15:41:59.644Z,9.25
2023-04-05T15:44:27.500Z,9.48
2023-04-05T15:46:55.478Z,7.07
2023-04-05T15:49:23.335Z,9.88
2023-04-05T15:51:51.258Z,7.55
2023-04-05T15:54:21.027Z,7.95
2023-04-05T15:56:49.175Z,7.70
2023-04-05T15:59:17.025Z,7.50
2023-04-05T16:01:45.051Z,7.03
2023-04-05T16:04:13.100Z,7.13
2023-04-05T16:06:41.078Z,7.15
2023-04-05T16:09:08.930Z,8.95
2023-04-05T16:11:38.428Z,7.20
2023-04-05T16:14:06.382Z,7.32
2023-04-05T16:16:42.053Z,8.57
2023-04-05T16:19:22.793Z,7.10
2023-04-05T16:21:51.405Z,7.35
2023-04-05T16:24:19.888Z,7.97
2023-04-05T16:26:49.194Z,7.60
2023-04-05T16:29:17.049Z,7.43
2023-04-05T16:31:47.575Z,8.23
2023-04-05T16:34:15.790Z,8.10
2023-04-05T16:36:43.855Z,7.28
2023-04-05T16:39:16.002Z,7.32
2023-04-05T16:41:44.082Z,10.27
2023-04-05T16:44:13.342Z,9.77
2023-04-05T16:46:41.381Z,7.25
2023-04-05T16:49:09.779Z,8.93
2023-04-05T16:51:38.668Z,8.50
2023-04-05T16:54:06.720Z,9.32
2023-04-05T16:56:37.185Z,8.88
2023-04-05T16:59:07.475Z,9.27
2023-04-05T17:01:38.083Z,8.05
2023-04-05T17:04:06.197Z,7.43
2023-04-05T17:06:34.121Z,7.53
2023-04-05T17:09:02.339Z,8.52
2023-04-05T17:11:30.923Z,6.82
2023-04-05T17:13:59.714Z,7.63
2023-04-05T17:16:27.820Z,9.30
2023-04-05T17:18:57.334Z,8.60
2023-04-05T17:21:25.921Z,8.40
2023-04-05T17:23:54.082Z,9.45
2023-04-05T17:26:23.372Z,8.48
2023-04-05T17:28:51.286Z,8.82
2023-04-05T17:31:19.402Z,9.30
2023-04-05T17:33:48.821Z,9.60
2023-04-05T17:36:18.714Z,9.18
2023-04-05T17:38:46.939Z,7.18
2023-04-05T17:41:14.934Z,7.43
2023-04-05T17:43:42.940Z,8.43
2023-04-05T17:46:13.854Z,8.73
2023-04-05T17:48:42.345Z,9.43
2023-04-05T17:51:10.766Z,10.13
2023-04-05T17:53:40.465Z,10.43
2023-04-05T17:56:08.509Z,8.35
2023-04-05T17:58:36.741Z,8.75
2023-04-05T18:01:05.003Z,8.35
2023-04-05T18:03:33.043Z,9.02
2023-04-05T18:06:00.983Z,7.03
2023-04-05T18:08:29.284Z,6.57
2023-04-05T18:10:59.513Z,6.13
2023-04-05T18:13:28.800Z,7.50
2023-04-05T18:15:57.778Z,6.53
2023-04-05T18:18:28.623Z,7.65
2023-04-05T18:20:57.912Z,8.10
2023-04-05T18:23:25.857Z,7.95
2023-04-05T18:25:54.580Z,8.70
2023-04-05T18:28:24.084Z,10.88
2023-04-05T18:30:53.004Z,10.40
2023-04-05T18:33:22.734Z,9.10
2023-04-05T18:35:51.292Z,10.20
2023-04-05T18:38:19.359Z,9.70
2023-04-05T18:40:47.337Z,9.70
2023-04-05T18:43:15.479Z,8.80
2023-04-05T18:45:45.231Z,11.35
2023-04-05T18:48:13.517Z,9.32
2023-04-05T18:50:41.407Z,12.25
2023-04-05T18:53:09.433Z,11.88
2023-04-05T18:55:38.226Z,11.43
2023-04-05T18:58:06.409Z,12.15
2023-04-05T19:00:35.040Z,13.07
2023-04-05T19:03:04.620Z,15.90
2023-04-05T19:05:33.308Z,12.05
2023-04-05T19:08:01.312Z,9.93
2023-04-05T19:10:29.284Z,9.98
2023-04-05T19:12:57.729Z,11.07
2023-04-05T19:15:25.674Z,11.13
2023-04-05T19:17:53.577Z,13.20
2023-04-05T19:20:22.921Z,12.05
2023-04-05T19:22:51.175Z,14.73
2023-04-05T19:25:19.273Z,15.30
2023-04-05T19:27:47.309Z,15.10
2023-04-05T19:30:15.495Z,14.75
2023-04-05T19:32:43.505Z,15.35
2023-04-05T19:35:11.606Z,16.52
2023-04-05T19:37:40.986Z,16.00
2023-04-05T19:40:10.036Z,18.90
2023-04-05T19:42:38.782Z,19.27
2023-04-05T19:45:09.294Z,20.52
2023-04-05T19:47:49.272Z,19.20
2023-04-05T19:50:42.806Z,20.83
2023-04-05T19:53:39.146Z,18.10
2023-04-05T19:56:13.033Z,15.20
2023-04-05T19:58:41.326Z,19.85
2023-04-05T20:01:09.442Z,14.80
2023-04-05T20:03:38.977Z,13.23
2023-04-05T20:06:29.876Z,12.05
2023-04-05T20:09:04.268Z,17.80
2023-04-05T20:11:32.953Z,15.07
2023-04-05T20:14:02.222Z,13.35
2023-04-05T20:16:33.486Z,13.32
2023-04-05T20:19:03.729Z,11.32
2023-04-05T20:21:34.988Z,12.18
2023-04-05T20:24:08.567Z,13.32
2023-04-05T20:26:36.938Z,11.55
2023-04-05T20:29:08.752Z,15.40
2023-04-05T20:31:39.998Z,15.07
2023-04-05T20:34:11.449Z,11.93
2023-04-05T20:36:44.210Z,13.93
2023-04-05T20:39:13.581Z,10.68
2023-04-05T20:41:41.541Z,11.18
2023-04-05T20:44:09.453Z,11.73
2023-04-05T20:46:37.605Z,12.43
2023-04-05T20:49:05.611Z,10.80
2023-04-05T20:51:33.710Z,10.35
2023-04-05T20:54:01.528Z,11.25
2023-04-05T20:56:30.732Z,11.70
2023-04-05T20:58:58.537Z,15.35
2023-04-05T21:01:27.154Z,18.60
2023-04-05T21:03:55.052Z,24.70
2023-04-05T21:06:22.957Z,23.33
2023-04-05T21:08:50.750Z,16.35
2023-04-05T21:11:20.057Z,19.90
2023-04-05T21:13:49.246Z,17.90
2023-04-05T21:16:17.333Z,18.33
2023-04-05T21:18:45.244Z,13.57
2023-04-05T21:21:13.056Z,12.90
2023-04-05T21:23:43.930Z,12.02
2023-04-05T21:26:11.739Z,14.65
2023-04-05T21:28:39.568Z,16.13
2023-04-05T21:31:08.789Z,16.20
2023-04-05T21:33:36.769Z,14.98
2023-04-05T21:36:04.980Z,18.02
2023-04-05T21:38:32.809Z,16.30
2023-04-05T21:41:00.627Z,16.08
2023-04-05T21:43:28.469Z,20.08
2023-04-05T21:45:56.279Z,16.60
2023-04-05T21:48:27.809Z,22.00
2023-04-05T21:50:55.934Z,19.73
2023-04-05T21:53:25.305Z,20.63
2023-04-05T21:55:53.259Z,21.00
2023-04-05T21:58:21.146Z,18.15
2023-04-05T22:00:49.041Z,19.52
2023-04-05T22:03:16.956Z,19.40
2023-04-05T22:05:46.374Z,20.52
2023-04-05T22:08:14.241Z,18.05
2023-04-05T22:10:42.284Z,19.25
2023-04-05T22:13:10.205Z,19.55
2023-04-05T22:15:38.198Z,18.73
2023-04-05T22:18:06.670Z,20.42
2023-04-05T22:20:34.696Z,20.85
2023-04-05T22:23:03.917Z,20.70
2023-04-05T22:25:32.154Z,18.30
2023-04-05T22:28:00.722Z,20.92
2023-04-05T22:30:28.930Z,18.33
2023-04-05T22:32:57.048Z,22.52
2023-04-05T22:35:25.112Z,19.92
2023-04-05T22:37:52.926Z,18.58
2023-04-05T22:40:26.965Z,18.30
2023-04-05T22:42:55.029Z,19.10
2023-04-05T22:45:23.615Z,18.83
2023-04-05T22:47:51.559Z,19.55
2023-04-05T22:50:19.490Z,18.27
2023-04-05T22:52:47.326Z,18.27
2023-04-05T22:55:15.576Z,21.80
2023-04-05T22:57:44.918Z,21.10
2023-04-05T23:00:15.035Z,18.42
2023-04-05T23:02:43.447Z,19.75
2023-04-05T23:05:13.121Z,22.38
2023-04-05T23:07:41.073Z,19.08
2023-04-05T23:10:09.583Z,20.33
2023-04-05T23:12:37.442Z,21.83
2023-04-05T23:15:07.877Z,19.63
2023-04-05T23:17:35.769Z,25.17
2023-04-05T23:20:05.799Z,22.35
2023-04-05T23:22:34.814Z,22.70
2023-04-05T23:25:03.043Z,22.10
2023-04-05T23:27:31.104Z,22.88
2023-04-05T23:29:59.410Z,19.02
2023-04-05T23:32:28.611Z,21.73
2023-04-05T23:34:56.481Z,22.10
2023-04-05T23:37:24.337Z,21.73
2023-04-05T23:39:52.150Z,21.00
2023-04-05T23:42:20.068Z,21.80
2023-04-05T23:44:47.916Z,23.52
2023-04-05T23:47:15.750Z,24.42
2023-04-05T23:49:45.021Z,20.40
2023-04-05T23:52:12.859Z,20.20
2023-04-05T23:54:40.973Z,19.88
2023-04-05T23:57:09.010Z,18.83
2023-04-05T23:59:37.140Z,20.20
